EZY75JY EGPH-EGJJ
Flight info
| Callsign | EZY75JY |
|---|---|
| Flight time | 1h 10m |
| Altitude | 23000 |
| Route | TLA6D TLA N864 DCS L612 HON N859 CPT Y321 PEPIS/N0435F380 Q41 SAM N63 LELNA LELNA1K |
| Aircraft | A320/M-SDE1E2E3FGHIRWXY/LB1 |
Departure
| Time | 2026-04-26 07:08 |
|---|---|
| Airport | Edinburgh Airport (EGPH) |
Arrival
| Time | 2026-04-26 08:18 |
|---|---|
| Airport | Jersey Airport (EGJJ) |
| Time | Latitude | Longitude | Altitude | Speed | Heading |
|---|---|---|---|---|---|
| 2026-04-26 06:46 | 55.94832 | -3.35808 | 113 ft | 0 kts | 208° |
| 2026-04-26 06:57 | 55.94837 | -3.35803 | 116 ft | 2 kts | 208° |
| 2026-04-26 06:58 | 55.94852 | -3.35789 | 112 ft | 2 kts | 208° |
| 2026-04-26 06:58 | 55.94867 | -3.35774 | 115 ft | 2 kts | 208° |
| 2026-04-26 06:58 | 55.94881 | -3.35760 | 114 ft | 2 kts | 223° |
| 2026-04-26 06:58 | 55.94888 | -3.35734 | 113 ft | 2 kts | 285° |
| 2026-04-26 06:59 | 55.94884 | -3.35705 | 113 ft | 2 kts | 296° |
| 2026-04-26 06:59 | 55.94882 | -3.35697 | 114 ft | 0 kts | 298° |
| 2026-04-26 07:01 | 55.94884 | -3.35701 | 114 ft | 1 kts | 298° |
| 2026-04-26 07:01 | 55.94895 | -3.35737 | 115 ft | 4 kts | 299° |
| 2026-04-26 07:01 | 55.94915 | -3.35801 | 116 ft | 7 kts | 299° |
| 2026-04-26 07:02 | 55.94963 | -3.35864 | 116 ft | 11 kts | 354° |
| 2026-04-26 07:02 | 55.95043 | -3.35799 | 115 ft | 14 kts | 28° |
| 2026-04-26 07:02 | 55.95108 | -3.35829 | 116 ft | 12 kts | 301° |
| 2026-04-26 07:02 | 55.95162 | -3.35940 | 113 ft | 13 kts | 328° |
| 2026-04-26 07:03 | 55.95211 | -3.36039 | 115 ft | 11 kts | 268° |
| 2026-04-26 07:03 | 55.95168 | -3.36180 | 116 ft | 15 kts | 238° |
| 2026-04-26 07:03 | 55.95107 | -3.36362 | 116 ft | 19 kts | 239° |
| 2026-04-26 07:03 | 55.95033 | -3.36581 | 113 ft | 23 kts | 238° |
| 2026-04-26 07:04 | 55.94946 | -3.36839 | 114 ft | 25 kts | 238° |
| 2026-04-26 07:04 | 55.94852 | -3.37114 | 113 ft | 27 kts | 239° |
| 2026-04-26 07:04 | 55.94754 | -3.37405 | 115 ft | 28 kts | 238° |
| 2026-04-26 07:04 | 55.94653 | -3.37702 | 116 ft | 29 kts | 239° |
| 2026-04-26 07:05 | 55.94551 | -3.38002 | 116 ft | 28 kts | 239° |
| 2026-04-26 07:05 | 55.94452 | -3.38293 | 114 ft | 28 kts | 239° |
| 2026-04-26 07:05 | 55.94353 | -3.38582 | 114 ft | 26 kts | 239° |
| 2026-04-26 07:05 | 55.94281 | -3.38800 | 115 ft | 9 kts | 239° |
| 2026-04-26 07:06 | 55.94294 | -3.38875 | 116 ft | 6 kts | 320° |
| 2026-04-26 07:06 | 55.94329 | -3.38912 | 115 ft | 5 kts | 330° |
| 2026-04-26 07:06 | 55.94362 | -3.38948 | 113 ft | 6 kts | 329° |
| 2026-04-26 07:06 | 55.94403 | -3.38974 | 114 ft | 6 kts | 6° |
| 2026-04-26 07:07 | 55.94433 | -3.38923 | 114 ft | 11 kts | 56° |
| 2026-04-26 07:07 | 55.94546 | -3.38589 | 113 ft | 65 kts | 58° |
| 2026-04-26 07:07 | 55.94893 | -3.37564 | 114 ft | 128 kts | 59° |
| 2026-04-26 07:07 | 55.95443 | -3.35955 | 258 ft | 163 kts | 58° |
| 2026-04-26 07:08 | 55.96038 | -3.34249 | 989 ft | 162 kts | 51° |
| 2026-04-26 07:08 | 55.96894 | -3.32841 | 1500 ft | 179 kts | 41° |
| 2026-04-26 07:08 | 55.97895 | -3.31312 | 1939 ft | 198 kts | 42° |
| 2026-04-26 07:08 | 55.98975 | -3.29591 | 2321 ft | 219 kts | 43° |
| 2026-04-26 07:09 | 56.00165 | -3.27651 | 2721 ft | 244 kts | 43° |
| 2026-04-26 07:09 | 56.01477 | -3.25513 | 3306 ft | 261 kts | 43° |
| 2026-04-26 07:09 | 56.02823 | -3.23326 | 4137 ft | 268 kts | 42° |
| 2026-04-26 07:09 | 56.04201 | -3.21038 | 5035 ft | 273 kts | 47° |
| 2026-04-26 07:10 | 56.04880 | -3.11182 | 6001 ft | 276 kts | 111° |
| 2026-04-26 07:11 | 56.02485 | -3.06004 | 6061 ft | 276 kts | 146° |
| 2026-04-26 07:11 | 56.00940 | -3.03980 | 6881 ft | 278 kts | 144° |
| 2026-04-26 07:11 | 55.99384 | -3.01881 | 7792 ft | 280 kts | 144° |
| 2026-04-26 07:11 | 55.97709 | -3.00110 | 8632 ft | 280 kts | 164° |
| 2026-04-26 07:12 | 55.95821 | -2.99637 | 9466 ft | 278 kts | 186° |
| 2026-04-26 07:12 | 55.93929 | -3.00302 | 10335 ft | 277 kts | 202° |
| 2026-04-26 07:12 | 55.92146 | -3.01730 | 10882 ft | 289 kts | 207° |
| 2026-04-26 07:12 | 55.90251 | -3.03312 | 11136 ft | 312 kts | 206° |
| 2026-04-26 07:13 | 55.88228 | -3.04954 | 11648 ft | 324 kts | 206° |
| 2026-04-26 07:13 | 55.86156 | -3.06608 | 12364 ft | 329 kts | 206° |
| 2026-04-26 07:13 | 55.84054 | -3.08274 | 13110 ft | 333 kts | 206° |
| 2026-04-26 07:13 | 55.81929 | -3.09958 | 13849 ft | 336 kts | 206° |
| 2026-04-26 07:14 | 55.79783 | -3.11663 | 14517 ft | 340 kts | 206° |
| 2026-04-26 07:14 | 55.77614 | -3.13387 | 15154 ft | 343 kts | 206° |
| 2026-04-26 07:14 | 55.75427 | -3.15124 | 15808 ft | 346 kts | 206° |
| 2026-04-26 07:14 | 55.73221 | -3.16871 | 16437 ft | 349 kts | 206° |
| 2026-04-26 07:15 | 55.70996 | -3.18635 | 17078 ft | 352 kts | 206° |
| 2026-04-26 07:15 | 55.68748 | -3.20417 | 17715 ft | 355 kts | 206° |
| 2026-04-26 07:15 | 55.66479 | -3.22215 | 18341 ft | 359 kts | 206° |
| 2026-04-26 07:15 | 55.64222 | -3.24006 | 18912 ft | 362 kts | 206° |
| 2026-04-26 07:16 | 55.61916 | -3.25836 | 19464 ft | 364 kts | 206° |
| 2026-04-26 07:16 | 55.59597 | -3.27670 | 20002 ft | 367 kts | 206° |
| 2026-04-26 07:16 | 55.57252 | -3.29512 | 20539 ft | 370 kts | 206° |
| 2026-04-26 07:16 | 55.54892 | -3.31364 | 21078 ft | 373 kts | 206° |
| 2026-04-26 07:17 | 55.52509 | -3.33229 | 21627 ft | 376 kts | 205° |
| 2026-04-26 07:17 | 55.50007 | -3.34654 | 22186 ft | 381 kts | 195° |
| 2026-04-26 07:17 | 55.47352 | -3.35242 | 22715 ft | 388 kts | 184° |
| 2026-04-26 07:17 | 55.44636 | -3.35213 | 23210 ft | 392 kts | 182° |
| 2026-04-26 07:18 | 55.41895 | -3.35160 | 23712 ft | 396 kts | 182° |
| 2026-04-26 07:18 | 55.39133 | -3.35111 | 24159 ft | 398 kts | 183° |
| 2026-04-26 07:18 | 55.36349 | -3.35067 | 24579 ft | 401 kts | 183° |
| 2026-04-26 07:18 | 55.33550 | -3.35026 | 24984 ft | 404 kts | 183° |
| 2026-04-26 07:19 | 55.30729 | -3.34986 | 25382 ft | 406 kts | 183° |
| 2026-04-26 07:19 | 55.27898 | -3.34947 | 25766 ft | 408 kts | 183° |
| 2026-04-26 07:19 | 55.25048 | -3.34903 | 26158 ft | 411 kts | 183° |
| 2026-04-26 07:19 | 55.22178 | -3.34853 | 26538 ft | 413 kts | 183° |
| 2026-04-26 07:20 | 55.19293 | -3.34805 | 26882 ft | 416 kts | 183° |
| 2026-04-26 07:20 | 55.16389 | -3.34757 | 27231 ft | 419 kts | 183° |
| 2026-04-26 07:20 | 55.13469 | -3.34708 | 27595 ft | 421 kts | 183° |
| 2026-04-26 07:20 | 55.10533 | -3.34662 | 27949 ft | 423 kts | 184° |
| 2026-04-26 07:21 | 55.07577 | -3.34620 | 28294 ft | 425 kts | 184° |
| 2026-04-26 07:21 | 55.04644 | -3.34579 | 28623 ft | 428 kts | 184° |
| 2026-04-26 07:21 | 55.01661 | -3.34534 | 28955 ft | 430 kts | 184° |
| 2026-04-26 07:21 | 54.98662 | -3.34484 | 29277 ft | 432 kts | 184° |
| 2026-04-26 07:22 | 54.95649 | -3.34432 | 29558 ft | 434 kts | 184° |
| 2026-04-26 07:22 | 54.92620 | -3.34381 | 29839 ft | 437 kts | 184° |
| 2026-04-26 07:22 | 54.89593 | -3.34335 | 30120 ft | 439 kts | 184° |
| 2026-04-26 07:22 | 54.86492 | -3.34288 | 30406 ft | 441 kts | 184° |
| 2026-04-26 07:23 | 54.83440 | -3.34245 | 30640 ft | 443 kts | 184° |
| 2026-04-26 07:23 | 54.80343 | -3.34203 | 30882 ft | 444 kts | 184° |
| 2026-04-26 07:23 | 54.77254 | -3.34159 | 31111 ft | 446 kts | 184° |
| 2026-04-26 07:23 | 54.74127 | -3.33915 | 31333 ft | 451 kts | 178° |
| 2026-04-26 07:24 | 54.71041 | -3.32860 | 31570 ft | 457 kts | 168° |
| 2026-04-26 07:24 | 54.68032 | -3.30945 | 31851 ft | 462 kts | 161° |
| 2026-04-26 07:24 | 54.65099 | -3.28725 | 32146 ft | 461 kts | 161° |
| 2026-04-26 07:24 | 54.62175 | -3.26526 | 32460 ft | 460 kts | 161° |
| 2026-04-26 07:25 | 54.59250 | -3.24337 | 32796 ft | 459 kts | 161° |
| 2026-04-26 07:25 | 54.56329 | -3.22153 | 33091 ft | 458 kts | 161° |
| 2026-04-26 07:25 | 54.53414 | -3.19977 | 33372 ft | 458 kts | 161° |
| 2026-04-26 07:25 | 54.50465 | -3.17782 | 33648 ft | 458 kts | 161° |
| 2026-04-26 07:26 | 54.47552 | -3.15615 | 33954 ft | 457 kts | 161° |
| 2026-04-26 07:26 | 54.44641 | -3.13448 | 34230 ft | 457 kts | 161° |
| 2026-04-26 07:26 | 54.41736 | -3.11284 | 34464 ft | 456 kts | 161° |
| 2026-04-26 07:26 | 54.38807 | -3.09110 | 34716 ft | 456 kts | 161° |
| 2026-04-26 07:27 | 54.35911 | -3.06969 | 34942 ft | 456 kts | 161° |
| 2026-04-26 07:27 | 54.32961 | -3.04794 | 35186 ft | 455 kts | 161° |
| 2026-04-26 07:27 | 54.30057 | -3.02655 | 35419 ft | 455 kts | 161° |
| 2026-04-26 07:27 | 54.27156 | -3.00524 | 35643 ft | 455 kts | 161° |
| 2026-04-26 07:28 | 54.24256 | -2.98400 | 35868 ft | 454 kts | 161° |
| 2026-04-26 07:28 | 54.21359 | -2.96275 | 36088 ft | 454 kts | 161° |
| 2026-04-26 07:28 | 54.18466 | -2.94150 | 36278 ft | 454 kts | 161° |
| 2026-04-26 07:28 | 54.15570 | -2.92024 | 36482 ft | 453 kts | 161° |
| 2026-04-26 07:29 | 54.12678 | -2.89911 | 36682 ft | 453 kts | 161° |
| 2026-04-26 07:29 | 54.09786 | -2.87803 | 36868 ft | 453 kts | 161° |
| 2026-04-26 07:29 | 54.06895 | -2.85696 | 37072 ft | 453 kts | 161° |
| 2026-04-26 07:29 | 54.04006 | -2.83596 | 37251 ft | 452 kts | 161° |
| 2026-04-26 07:30 | 54.01090 | -2.81482 | 37430 ft | 452 kts | 161° |
| 2026-04-26 07:30 | 53.98202 | -2.79390 | 37604 ft | 452 kts | 161° |
| 2026-04-26 07:30 | 53.95317 | -2.77300 | 37774 ft | 451 kts | 161° |
| 2026-04-26 07:30 | 53.92457 | -2.75232 | 37966 ft | 451 kts | 161° |
| 2026-04-26 07:31 | 53.89569 | -2.73147 | 38159 ft | 450 kts | 160° |
| 2026-04-26 07:31 | 53.86683 | -2.71063 | 38293 ft | 450 kts | 160° |
| 2026-04-26 07:31 | 53.83792 | -2.68979 | 38308 ft | 450 kts | 160° |
| 2026-04-26 07:32 | 53.78025 | -2.64845 | 38310 ft | 449 kts | 161° |
| 2026-04-26 07:32 | 53.72278 | -2.60738 | 38308 ft | 449 kts | 161° |
| 2026-04-26 07:33 | 53.66493 | -2.56599 | 38312 ft | 451 kts | 160° |
| 2026-04-26 07:33 | 53.60734 | -2.52490 | 38311 ft | 452 kts | 160° |
| 2026-04-26 07:34 | 53.54933 | -2.48371 | 38316 ft | 452 kts | 160° |
| 2026-04-26 07:34 | 53.49170 | -2.44303 | 38319 ft | 452 kts | 161° |
| 2026-04-26 07:35 | 53.43370 | -2.40222 | 38331 ft | 452 kts | 161° |
| 2026-04-26 07:35 | 53.38542 | -2.36831 | 38334 ft | 452 kts | 161° |
| 2026-04-26 07:36 | 53.32734 | -2.32743 | 38336 ft | 452 kts | 161° |
| 2026-04-26 07:36 | 53.26947 | -2.28683 | 38336 ft | 452 kts | 161° |
| 2026-04-26 07:37 | 53.21155 | -2.24648 | 38324 ft | 452 kts | 161° |
| 2026-04-26 07:37 | 53.15320 | -2.20599 | 38328 ft | 452 kts | 161° |
| 2026-04-26 07:38 | 53.09521 | -2.16572 | 38337 ft | 452 kts | 161° |
| 2026-04-26 07:38 | 53.03747 | -2.12573 | 38342 ft | 451 kts | 161° |
| 2026-04-26 07:39 | 52.97955 | -2.08593 | 38324 ft | 451 kts | 161° |
| 2026-04-26 07:39 | 52.92123 | -2.04594 | 38331 ft | 451 kts | 161° |
| 2026-04-26 07:40 | 52.86351 | -2.00630 | 38339 ft | 451 kts | 161° |
| 2026-04-26 07:40 | 52.80562 | -1.96667 | 38335 ft | 451 kts | 161° |
| 2026-04-26 07:41 | 52.74732 | -1.92702 | 38309 ft | 452 kts | 161° |
| 2026-04-26 07:41 | 52.68898 | -1.88746 | 38321 ft | 452 kts | 161° |
| 2026-04-26 07:42 | 52.63114 | -1.84829 | 38327 ft | 452 kts | 161° |
| 2026-04-26 07:42 | 52.57314 | -1.80910 | 38330 ft | 452 kts | 161° |
| 2026-04-26 07:43 | 52.51478 | -1.76973 | 38328 ft | 452 kts | 161° |
| 2026-04-26 07:43 | 52.45683 | -1.73080 | 38320 ft | 452 kts | 161° |
| 2026-04-26 07:44 | 52.39831 | -1.69156 | 38328 ft | 452 kts | 161° |
| 2026-04-26 07:44 | 52.34035 | -1.65373 | 38332 ft | 451 kts | 163° |
| 2026-04-26 07:45 | 52.28058 | -1.62146 | 38354 ft | 449 kts | 166° |
| 2026-04-26 07:45 | 52.22097 | -1.59235 | 38341 ft | 449 kts | 166° |
| 2026-04-26 07:46 | 52.16086 | -1.56216 | 38356 ft | 450 kts | 166° |
| 2026-04-26 07:46 | 52.10120 | -1.53112 | 38355 ft | 450 kts | 165° |
| 2026-04-26 07:47 | 52.04171 | -1.50010 | 38352 ft | 450 kts | 165° |
| 2026-04-26 07:47 | 51.98219 | -1.46934 | 38327 ft | 450 kts | 166° |
| 2026-04-26 07:48 | 51.92264 | -1.43878 | 38324 ft | 451 kts | 166° |
| 2026-04-26 07:48 | 51.86267 | -1.40804 | 38320 ft | 451 kts | 165° |
| 2026-04-26 07:49 | 51.80306 | -1.37755 | 38322 ft | 452 kts | 166° |
| 2026-04-26 07:49 | 51.74304 | -1.34697 | 38313 ft | 452 kts | 166° |
| 2026-04-26 07:50 | 51.65294 | -1.30125 | 38325 ft | 453 kts | 166° |
| 2026-04-26 07:50 | 51.59286 | -1.27077 | 38330 ft | 453 kts | 166° |
| 2026-04-26 07:51 | 51.53274 | -1.24045 | 38325 ft | 453 kts | 166° |
| 2026-04-26 07:51 | 51.47142 | -1.22239 | 38332 ft | 445 kts | 182° |
| 2026-04-26 07:52 | 51.40978 | -1.22634 | 38330 ft | 443 kts | 186° |
| 2026-04-26 07:52 | 51.34821 | -1.23141 | 38330 ft | 443 kts | 186° |
| 2026-04-26 07:53 | 51.28653 | -1.23648 | 38316 ft | 444 kts | 186° |
| 2026-04-26 07:53 | 51.22480 | -1.24146 | 38326 ft | 444 kts | 186° |
| 2026-04-26 07:54 | 51.16472 | -1.25695 | 38310 ft | 439 kts | 198° |
| 2026-04-26 07:54 | 51.10568 | -1.28187 | 38313 ft | 439 kts | 198° |
| 2026-04-26 07:55 | 51.04662 | -1.30681 | 38311 ft | 439 kts | 198° |
| 2026-04-26 07:55 | 50.98748 | -1.33156 | 38314 ft | 440 kts | 198° |
| 2026-04-26 07:56 | 50.93056 | -1.36464 | 38316 ft | 433 kts | 210° |
| 2026-04-26 07:56 | 50.87667 | -1.40795 | 38314 ft | 434 kts | 210° |
| 2026-04-26 07:57 | 50.82282 | -1.45087 | 38309 ft | 433 kts | 210° |
| 2026-04-26 07:57 | 50.76934 | -1.49334 | 38314 ft | 433 kts | 210° |
| 2026-04-26 07:58 | 50.71530 | -1.53617 | 38314 ft | 433 kts | 210° |
| 2026-04-26 07:58 | 50.66154 | -1.57871 | 38305 ft | 433 kts | 210° |
| 2026-04-26 07:59 | 50.63449 | -1.60008 | 37464 ft | 438 kts | 210° |
| 2026-04-26 07:59 | 50.60729 | -1.62158 | 36345 ft | 445 kts | 210° |
| 2026-04-26 07:59 | 50.57940 | -1.64357 | 35350 ft | 449 kts | 210° |
| 2026-04-26 07:59 | 50.55132 | -1.66563 | 34413 ft | 451 kts | 210° |
| 2026-04-26 08:00 | 50.52318 | -1.68771 | 33546 ft | 448 kts | 210° |
| 2026-04-26 08:00 | 50.49527 | -1.70953 | 32665 ft | 447 kts | 210° |
| 2026-04-26 08:00 | 50.46780 | -1.73096 | 31915 ft | 444 kts | 210° |
| 2026-04-26 08:00 | 50.44027 | -1.75244 | 31241 ft | 440 kts | 210° |
| 2026-04-26 08:01 | 50.41299 | -1.77375 | 30607 ft | 436 kts | 210° |
| 2026-04-26 08:01 | 50.38594 | -1.79490 | 29890 ft | 432 kts | 210° |
| 2026-04-26 08:01 | 50.35901 | -1.81591 | 29188 ft | 428 kts | 210° |
| 2026-04-26 08:01 | 50.33240 | -1.83661 | 28521 ft | 424 kts | 209° |
| 2026-04-26 08:02 | 50.30628 | -1.85688 | 27904 ft | 420 kts | 209° |
| 2026-04-26 08:02 | 50.28025 | -1.87708 | 27306 ft | 415 kts | 209° |
| 2026-04-26 08:02 | 50.25446 | -1.89710 | 26708 ft | 411 kts | 209° |
| 2026-04-26 08:02 | 50.22914 | -1.91673 | 26127 ft | 408 kts | 208° |
| 2026-04-26 08:03 | 50.20379 | -1.93640 | 25545 ft | 404 kts | 208° |
| 2026-04-26 08:03 | 50.17864 | -1.95588 | 24981 ft | 401 kts | 208° |
| 2026-04-26 08:03 | 50.15374 | -1.97509 | 24433 ft | 398 kts | 208° |
| 2026-04-26 08:03 | 50.12883 | -1.99422 | 23899 ft | 395 kts | 208° |
| 2026-04-26 08:04 | 50.10459 | -2.01278 | 23309 ft | 392 kts | 208° |
| 2026-04-26 08:04 | 50.08014 | -2.03148 | 22751 ft | 388 kts | 208° |
| 2026-04-26 08:04 | 50.05593 | -2.05002 | 22216 ft | 385 kts | 208° |
| 2026-04-26 08:04 | 50.03190 | -2.06844 | 21702 ft | 382 kts | 208° |
| 2026-04-26 08:05 | 50.00837 | -2.08649 | 21200 ft | 379 kts | 207° |
| 2026-04-26 08:05 | 49.98458 | -2.10377 | 20703 ft | 376 kts | 201° |
| 2026-04-26 08:05 | 49.95929 | -2.11449 | 20224 ft | 374 kts | 194° |
| 2026-04-26 08:05 | 49.93398 | -2.12317 | 19749 ft | 371 kts | 194° |
| 2026-04-26 08:06 | 49.90878 | -2.13180 | 19298 ft | 368 kts | 193° |
| 2026-04-26 08:06 | 49.88389 | -2.14029 | 18851 ft | 364 kts | 193° |
| 2026-04-26 08:06 | 49.85954 | -2.14858 | 18394 ft | 361 kts | 193° |
| 2026-04-26 08:06 | 49.83507 | -2.15690 | 17873 ft | 359 kts | 193° |
| 2026-04-26 08:07 | 49.81068 | -2.16517 | 17350 ft | 357 kts | 193° |
| 2026-04-26 08:07 | 49.78651 | -2.17338 | 16844 ft | 355 kts | 193° |
| 2026-04-26 08:07 | 49.76245 | -2.18154 | 16333 ft | 353 kts | 193° |
| 2026-04-26 08:07 | 49.73850 | -2.18966 | 15576 ft | 358 kts | 193° |
| 2026-04-26 08:08 | 49.71400 | -2.19800 | 14939 ft | 361 kts | 193° |
| 2026-04-26 08:08 | 49.68958 | -2.20714 | 14394 ft | 360 kts | 195° |
| 2026-04-26 08:08 | 49.66533 | -2.21753 | 13656 ft | 363 kts | 197° |
| 2026-04-26 08:08 | 49.64130 | -2.22856 | 13003 ft | 363 kts | 197° |
| 2026-04-26 08:09 | 49.61715 | -2.23990 | 12266 ft | 364 kts | 197° |
| 2026-04-26 08:09 | 49.59273 | -2.25132 | 11433 ft | 367 kts | 197° |
| 2026-04-26 08:09 | 49.56828 | -2.26252 | 10820 ft | 364 kts | 197° |
| 2026-04-26 08:09 | 49.54409 | -2.27340 | 10238 ft | 354 kts | 196° |
| 2026-04-26 08:10 | 49.52125 | -2.28353 | 10001 ft | 325 kts | 196° |
| 2026-04-26 08:10 | 49.50051 | -2.29268 | 9775 ft | 302 kts | 196° |
| 2026-04-26 08:10 | 49.48075 | -2.30139 | 9366 ft | 287 kts | 196° |
| 2026-04-26 08:10 | 49.46185 | -2.30972 | 8907 ft | 276 kts | 196° |
| 2026-04-26 08:11 | 49.44385 | -2.31765 | 8407 ft | 270 kts | 197° |
| 2026-04-26 08:11 | 49.42601 | -2.32548 | 7935 ft | 261 kts | 196° |
| 2026-04-26 08:11 | 49.40803 | -2.33339 | 7008 ft | 278 kts | 197° |
| 2026-04-26 08:11 | 49.38906 | -2.34175 | 6349 ft | 288 kts | 196° |
| 2026-04-26 08:12 | 49.36998 | -2.35014 | 6014 ft | 282 kts | 197° |
| 2026-04-26 08:12 | 49.35111 | -2.35846 | 5587 ft | 281 kts | 197° |
| 2026-04-26 08:12 | 49.33232 | -2.36676 | 5173 ft | 279 kts | 197° |
| 2026-04-26 08:12 | 49.31374 | -2.37496 | 4767 ft | 276 kts | 196° |
| 2026-04-26 08:13 | 49.29540 | -2.38305 | 4216 ft | 279 kts | 196° |
| 2026-04-26 08:13 | 49.27674 | -2.39126 | 3770 ft | 278 kts | 196° |
| 2026-04-26 08:13 | 49.25830 | -2.39932 | 3349 ft | 270 kts | 196° |
| 2026-04-26 08:13 | 49.24100 | -2.40687 | 3095 ft | 250 kts | 196° |
| 2026-04-26 08:14 | 49.22464 | -2.41288 | 2843 ft | 232 kts | 182° |
| 2026-04-26 08:14 | 49.20953 | -2.40810 | 2589 ft | 217 kts | 149° |
| 2026-04-26 08:14 | 49.19901 | -2.39282 | 2335 ft | 205 kts | 121° |
| 2026-04-26 08:14 | 49.19422 | -2.37291 | 2102 ft | 199 kts | 97° |
| 2026-04-26 08:15 | 49.19470 | -2.35254 | 2040 ft | 185 kts | 83° |
| 2026-04-26 08:15 | 49.19631 | -2.33372 | 1908 ft | 173 kts | 83° |
| 2026-04-26 08:15 | 49.19781 | -2.31617 | 1712 ft | 160 kts | 84° |
| 2026-04-26 08:15 | 49.19918 | -2.29993 | 1500 ft | 148 kts | 84° |
| 2026-04-26 08:16 | 49.20044 | -2.28504 | 1339 ft | 140 kts | 83° |
| 2026-04-26 08:16 | 49.20165 | -2.27049 | 1126 ft | 137 kts | 83° |
| 2026-04-26 08:16 | 49.20287 | -2.25623 | 939 ft | 134 kts | 84° |
| 2026-04-26 08:16 | 49.20405 | -2.24218 | 775 ft | 132 kts | 83° |
| 2026-04-26 08:17 | 49.20522 | -2.22826 | 588 ft | 132 kts | 84° |
| 2026-04-26 08:17 | 49.20635 | -2.21448 | 409 ft | 130 kts | 83° |
| 2026-04-26 08:17 | 49.20757 | -2.20076 | 290 ft | 127 kts | 84° |
| 2026-04-26 08:17 | 49.20841 | -2.19035 | 285 ft | 58 kts | 83° |
| 2026-04-26 08:18 | 49.20873 | -2.18659 | 283 ft | 26 kts | 82° |
| 2026-04-26 08:18 | 49.20886 | -2.18439 | 281 ft | 13 kts | 105° |
| 2026-04-26 08:18 | 49.20816 | -2.18376 | 284 ft | 12 kts | 184° |
| 2026-04-26 08:18 | 49.20752 | -2.18437 | 284 ft | 10 kts | 222° |
| 2026-04-26 08:19 | 49.20728 | -2.18565 | 284 ft | 15 kts | 263° |
| 2026-04-26 08:19 | 49.20715 | -2.18742 | 284 ft | 16 kts | 263° |
| 2026-04-26 08:19 | 49.20700 | -2.18908 | 284 ft | 15 kts | 262° |
| 2026-04-26 08:19 | 49.20687 | -2.19061 | 284 ft | 14 kts | 263° |
| 2026-04-26 08:20 | 49.20681 | -2.19201 | 284 ft | 13 kts | 277° |
| 2026-04-26 08:20 | 49.20701 | -2.19325 | 284 ft | 12 kts | 284° |
| 2026-04-26 08:20 | 49.20709 | -2.19440 | 284 ft | 10 kts | 265° |
| 2026-04-26 08:20 | 49.20696 | -2.19546 | 284 ft | 10 kts | 259° |
| 2026-04-26 08:21 | 49.20672 | -2.19636 | 288 ft | 9 kts | 230° |
| 2026-04-26 08:21 | 49.20619 | -2.19669 | 284 ft | 9 kts | 175° |
| 2026-04-26 08:21 | 49.20573 | -2.19643 | 284 ft | 5 kts | 158° |
| 2026-04-26 08:21 | 49.20562 | -2.19637 | 284 ft | 0 kts | 159° |